createdAt,value
2022-11-08T00:00:40.360Z,16.95
2022-11-08T00:01:20.842Z,16.20
2022-11-08T00:01:43.579Z,16.75
2022-11-08T00:02:05.580Z,17.00
2022-11-08T00:02:28.014Z,16.60
2022-11-08T00:02:49.900Z,15.75
2022-11-08T00:03:11.852Z,16.17
2022-11-08T00:03:33.839Z,16.35
2022-11-08T00:03:55.698Z,16.30
2022-11-08T00:04:18.434Z,16.27
2022-11-08T00:04:40.693Z,15.93
2022-11-08T00:05:21.357Z,16.02
2022-11-08T00:06:01.719Z,15.80
2022-11-08T00:06:42.132Z,16.40
2022-11-08T00:07:23.059Z,16.83
2022-11-08T00:08:03.811Z,16.38
2022-11-08T00:08:44.024Z,15.60
2022-11-08T00:09:25.060Z,16.25
2022-11-08T00:10:06.251Z,16.10
2022-11-08T00:10:46.556Z,15.02
2022-11-08T00:11:27.590Z,15.75
2022-11-08T00:12:08.776Z,15.02
2022-11-08T00:12:49.637Z,15.07
2022-11-08T00:13:30.060Z,15.70
2022-11-08T00:13:59.352Z,16.00
2022-11-08T00:14:21.473Z,15.95
2022-11-08T00:14:44.086Z,16.40
2022-11-08T00:15:09.029Z,16.15
2022-11-08T00:15:33.484Z,15.05
2022-11-08T00:15:55.256Z,16.20
2022-11-08T00:16:17.036Z,15.88
2022-11-08T00:16:38.792Z,15.65
2022-11-08T00:17:00.932Z,16.00
2022-11-08T00:17:24.262Z,16.33
2022-11-08T00:17:46.062Z,17.00
2022-11-08T00:18:08.026Z,16.13
2022-11-08T00:18:30.146Z,16.27
2022-11-08T00:18:51.867Z,16.55
2022-11-08T00:19:13.581Z,16.55
2022-11-08T00:19:35.594Z,15.52
2022-11-08T00:19:57.718Z,16.23
2022-11-08T00:20:19.466Z,16.20
2022-11-08T00:20:41.202Z,16.42
2022-11-08T00:21:04.024Z,16.52
2022-11-08T00:21:26.365Z,16.25
2022-11-08T00:21:48.550Z,16.63
2022-11-08T00:22:11.178Z,15.93
2022-11-08T00:22:33.012Z,15.88
2022-11-08T00:22:54.751Z,17.63
2022-11-08T00:23:16.546Z,17.23
2022-11-08T00:23:38.381Z,17.00
2022-11-08T00:24:00.537Z,17.42
2022-11-08T00:24:22.256Z,19.67
2022-11-08T00:24:44.425Z,18.67
2022-11-08T00:25:06.912Z,20.15
2022-11-08T00:25:29.164Z,24.13
2022-11-08T00:25:55.159Z,26.85
2022-11-08T00:26:17.299Z,29.65
2022-11-08T00:26:39.137Z,23.80
2022-11-08T00:27:01.945Z,22.85
2022-11-08T00:27:25.037Z,22.58
2022-11-08T00:27:47.254Z,20.35
2022-11-08T00:28:09.406Z,19.20
2022-11-08T00:28:31.145Z,19.08
2022-11-08T00:28:53.008Z,21.52
2022-11-08T00:29:14.736Z,22.23
2022-11-08T00:29:37.355Z,22.05
2022-11-08T00:29:59.484Z,22.80
2022-11-08T00:30:23.264Z,21.10
2022-11-08T00:30:45.052Z,20.58
2022-11-08T00:31:07.358Z,21.23
2022-11-08T00:31:29.117Z,20.65
2022-11-08T00:31:51.432Z,20.08
2022-11-08T00:32:16.154Z,22.52
2022-11-08T00:32:38.322Z,26.38
2022-11-08T00:33:00.603Z,27.50
2022-11-08T00:33:22.758Z,31.40
2022-11-08T00:33:44.591Z,26.70
2022-11-08T00:34:06.374Z,30.05
2022-11-08T00:34:28.140Z,27.10
2022-11-08T00:34:57.864Z,23.67
2022-11-08T00:35:20.038Z,18.58
2022-11-08T00:35:41.746Z,19.17
2022-11-08T00:36:04.767Z,18.60
2022-11-08T00:36:26.946Z,26.38
2022-11-08T00:36:48.679Z,31.23
2022-11-08T00:37:11.283Z,33.50
2022-11-08T00:37:33.024Z,32.45
2022-11-08T00:37:54.816Z,29.63
2022-11-08T00:38:16.808Z,27.65
2022-11-08T00:38:42.720Z,25.42
2022-11-08T00:39:04.823Z,25.27
2022-11-08T00:39:27.094Z,23.05
2022-11-08T00:39:49.402Z,24.83
2022-11-08T00:40:12.116Z,28.30
2022-11-08T00:40:34.766Z,31.40
2022-11-08T00:40:56.584Z,23.95
2022-11-08T00:41:18.375Z,25.77
2022-11-08T00:41:40.565Z,28.83
2022-11-08T00:42:02.815Z,27.88
2022-11-08T00:42:25.861Z,22.73
2022-11-08T00:42:47.640Z,28.10
2022-11-08T00:43:09.807Z,27.13
2022-11-08T00:43:31.997Z,23.42
2022-11-08T00:43:54.229Z,21.63
2022-11-08T00:44:16.034Z,18.92
2022-11-08T00:44:38.187Z,17.80
2022-11-08T00:45:00.300Z,19.98
2022-11-08T00:45:22.417Z,22.48
2022-11-08T00:45:44.334Z,24.30
2022-11-08T00:46:06.240Z,23.65
2022-11-08T00:46:28.478Z,21.70
2022-11-08T00:46:50.685Z,27.92
2022-11-08T00:47:13.283Z,29.30
2022-11-08T00:47:35.491Z,29.23
2022-11-08T00:47:57.228Z,29.55
2022-11-08T00:48:19.312Z,26.85
2022-11-08T00:48:41.711Z,24.23
2022-11-08T00:49:03.988Z,19.92
2022-11-08T00:49:26.045Z,18.97
2022-11-08T00:49:48.149Z,21.08
2022-11-08T00:50:10.079Z,19.38
2022-11-08T00:50:31.821Z,20.27
2022-11-08T00:50:53.615Z,20.00
2022-11-08T00:51:15.400Z,19.75
2022-11-08T00:51:38.065Z,18.52
2022-11-08T00:51:59.880Z,17.42
2022-11-08T00:52:22.011Z,20.88
2022-11-08T00:52:44.108Z,22.50
2022-11-08T00:53:06.377Z,21.60
2022-11-08T00:53:28.145Z,19.40
2022-11-08T00:53:49.935Z,19.33
2022-11-08T00:54:14.880Z,18.88
2022-11-08T00:54:36.725Z,19.27
2022-11-08T00:54:58.575Z,19.65
2022-11-08T00:55:20.687Z,19.80
2022-11-08T00:55:42.542Z,22.48
2022-11-08T00:56:07.858Z,20.35
2022-11-08T00:56:29.618Z,20.75
2022-11-08T00:56:51.454Z,20.33
2022-11-08T00:57:13.640Z,18.60
2022-11-08T00:57:54.089Z,17.63
2022-11-08T00:58:17.454Z,18.30
2022-11-08T00:58:41.653Z,18.08
2022-11-08T00:59:03.769Z,17.63
2022-11-08T00:59:25.534Z,18.42
2022-11-08T00:59:47.264Z,18.15
2022-11-08T01:00:09.932Z,17.92
2022-11-08T01:00:31.729Z,17.23
2022-11-08T01:00:53.866Z,17.52
2022-11-08T01:01:17.537Z,17.00
2022-11-08T01:01:39.993Z,16.92
2022-11-08T01:02:03.586Z,17.88
2022-11-08T01:02:25.855Z,17.92
2022-11-08T01:02:48.117Z,17.23
2022-11-08T01:03:19.051Z,17.60
2022-11-08T01:03:40.842Z,17.55
2022-11-08T01:04:03.045Z,18.00
2022-11-08T01:04:24.792Z,16.95
2022-11-08T01:04:46.556Z,17.52
2022-11-08T01:05:08.836Z,17.87
2022-11-08T01:05:31.194Z,16.60
2022-11-08T01:05:54.816Z,17.30
2022-11-08T01:06:18.294Z,16.98
2022-11-08T01:06:40.699Z,17.52
2022-11-08T01:07:02.792Z,17.35
2022-11-08T01:07:24.542Z,17.80
2022-11-08T01:07:46.657Z,17.27
2022-11-08T01:08:09.112Z,17.42
2022-11-08T01:08:31.350Z,18.27
2022-11-08T01:08:55.397Z,18.67
2022-11-08T01:09:17.596Z,18.42
2022-11-08T01:09:39.355Z,17.98
2022-11-08T01:10:01.533Z,17.60
2022-11-08T01:10:23.272Z,18.35
2022-11-08T01:10:48.196Z,18.27
2022-11-08T01:11:14.123Z,18.05
2022-11-08T01:11:36.111Z,17.48
2022-11-08T01:11:57.892Z,17.42
2022-11-08T01:12:19.652Z,17.88
2022-11-08T01:12:41.369Z,18.42
2022-11-08T01:13:03.584Z,17.48
2022-11-08T01:13:25.797Z,17.85
2022-11-08T01:13:48.518Z,18.27
2022-11-08T01:14:10.401Z,17.77
2022-11-08T01:14:32.538Z,17.65
2022-11-08T01:14:54.929Z,18.08
2022-11-08T01:15:16.835Z,18.10
2022-11-08T01:15:40.995Z,18.38
2022-11-08T01:16:06.724Z,17.88
2022-11-08T01:16:30.133Z,18.30
2022-11-08T01:16:52.428Z,18.65
2022-11-08T01:17:14.177Z,18.52
2022-11-08T01:17:35.950Z,18.67
2022-11-08T01:17:57.704Z,18.30
2022-11-08T01:18:20.240Z,17.80
2022-11-08T01:18:43.396Z,18.45
2022-11-08T01:19:05.586Z,18.65
2022-11-08T01:19:27.681Z,18.70
2022-11-08T01:19:49.452Z,18.05
2022-11-08T01:20:11.854Z,18.58
2022-11-08T01:20:37.709Z,18.33
2022-11-08T01:20:59.866Z,18.42
2022-11-08T01:21:22.796Z,17.83
2022-11-08T01:21:44.579Z,18.63
2022-11-08T01:22:06.713Z,17.95
2022-11-08T01:22:28.886Z,17.98
2022-11-08T01:22:50.990Z,18.55
2022-11-08T01:23:13.927Z,18.45
2022-11-08T01:23:36.712Z,18.88
2022-11-08T01:23:59.017Z,18.60
2022-11-08T01:24:21.243Z,18.45
2022-11-08T01:24:43.058Z,18.63
2022-11-08T01:25:05.088Z,18.45
2022-11-08T01:25:27.244Z,18.67
2022-11-08T01:25:49.817Z,18.45
2022-11-08T01:26:13.690Z,18.23
2022-11-08T01:26:35.558Z,18.42
2022-11-08T01:26:57.323Z,18.63
2022-11-08T01:27:19.038Z,18.40
2022-11-08T01:27:41.707Z,18.33
2022-11-08T01:28:04.008Z,18.77
2022-11-08T01:28:26.133Z,18.23
2022-11-08T01:28:48.556Z,18.65
2022-11-08T01:29:10.283Z,18.42
2022-11-08T01:29:33.395Z,18.65
2022-11-08T01:29:55.133Z,18.13
2022-11-08T01:30:17.331Z,18.75
2022-11-08T01:30:39.990Z,18.98
2022-11-08T01:31:07.617Z,18.52
2022-11-08T01:31:31.765Z,18.58
2022-11-08T01:31:53.949Z,18.38
2022-11-08T01:32:16.086Z,18.40
2022-11-08T01:32:37.928Z,19.10
2022-11-08T01:32:59.643Z,18.83
2022-11-08T01:33:21.874Z,19.45
2022-11-08T01:33:49.880Z,18.75
2022-11-08T01:34:12.928Z,18.60
2022-11-08T01:34:34.762Z,18.08
2022-11-08T01:34:56.539Z,18.17
2022-11-08T01:35:18.280Z,18.52
2022-11-08T01:35:40.643Z,18.20
2022-11-08T01:36:02.507Z,18.23
2022-11-08T01:36:26.089Z,17.98
2022-11-08T01:36:48.252Z,17.90
2022-11-08T01:37:10.394Z,17.90
2022-11-08T01:37:32.209Z,18.10
2022-11-08T01:37:53.929Z,17.70
2022-11-08T01:38:16.551Z,18.10
2022-11-08T01:38:38.836Z,18.17
2022-11-08T01:39:00.633Z,17.58
2022-11-08T01:39:22.373Z,18.20
2022-11-08T01:39:44.505Z,17.83
2022-11-08T01:40:06.972Z,17.20
2022-11-08T01:40:29.555Z,17.13
2022-11-08T01:40:51.964Z,17.58
2022-11-08T01:41:15.624Z,17.58
2022-11-08T01:41:39.286Z,18.08
2022-11-08T01:42:01.442Z,17.88
2022-11-08T01:42:30.660Z,18.52
2022-11-08T01:42:53.513Z,18.30
2022-11-08T01:43:30.572Z,17.20
2022-11-08T01:43:57.589Z,17.38
2022-11-08T01:44:21.717Z,18.02
2022-11-08T01:45:15.682Z,18.02
2022-11-08T01:46:01.887Z,19.35
2022-11-08T01:46:35.570Z,18.67
2022-11-08T01:46:57.561Z,18.13
2022-11-08T01:47:19.314Z,17.38
2022-11-08T01:47:41.082Z,17.85
2022-11-08T01:48:02.980Z,17.75
2022-11-08T01:48:26.149Z,18.75
2022-11-08T01:49:13.509Z,18.85
2022-11-08T01:49:43.690Z,18.75
2022-11-08T01:50:13.249Z,18.15
2022-11-08T01:50:35.076Z,18.50
2022-11-08T01:50:59.551Z,18.25
2022-11-08T01:51:27.256Z,17.55
2022-11-08T01:51:51.697Z,17.15
2022-11-08T01:52:18.852Z,17.35
2022-11-08T01:52:46.268Z,17.77
2022-11-08T01:53:08.039Z,17.20
2022-11-08T01:53:30.411Z,17.52
2022-11-08T01:53:52.613Z,17.13
2022-11-08T01:54:17.797Z,17.15
2022-11-08T01:54:45.773Z,17.40
2022-11-08T01:55:10.082Z,17.10
2022-11-08T01:55:36.859Z,17.67
2022-11-08T01:55:59.276Z,17.42
2022-11-08T01:56:21.483Z,16.67
2022-11-08T01:56:44.655Z,16.67
2022-11-08T01:57:21.551Z,16.88
2022-11-08T01:58:06.964Z,17.38
2022-11-08T01:58:32.817Z,16.55
2022-11-08T01:58:58.217Z,18.33
2022-11-08T01:59:20.225Z,17.50
2022-11-08T01:59:44.898Z,17.15
2022-11-08T02:00:10.369Z,16.38
2022-11-08T02:00:32.223Z,16.75
2022-11-08T02:00:54.001Z,17.27
2022-11-08T02:01:15.915Z,17.08
2022-11-08T02:01:38.255Z,17.10
2022-11-08T02:02:00.697Z,17.45
2022-11-08T02:02:23.242Z,16.60
2022-11-08T02:02:47.900Z,16.38
2022-11-08T02:03:14.026Z,16.95
2022-11-08T02:03:36.541Z,16.90
2022-11-08T02:03:59.025Z,17.25
2022-11-08T02:04:21.362Z,17.60
2022-11-08T02:04:43.867Z,16.90
2022-11-08T02:05:07.783Z,17.10
2022-11-08T02:05:31.388Z,17.60
2022-11-08T02:05:53.261Z,17.70
2022-11-08T02:06:15.743Z,17.40
2022-11-08T02:06:39.475Z,17.60
2022-11-08T02:07:02.541Z,17.37
2022-11-08T02:07:25.916Z,16.98
2022-11-08T02:07:47.694Z,16.95
2022-11-08T02:08:34.528Z,16.92
2022-11-08T02:09:01.427Z,16.50
2022-11-08T02:09:23.599Z,17.05
2022-11-08T02:09:47.930Z,16.30
2022-11-08T02:10:10.167Z,17.00
2022-11-08T02:10:41.149Z,17.38
2022-11-08T02:11:03.987Z,17.48
2022-11-08T02:11:26.115Z,17.35
2022-11-08T02:11:49.264Z,17.25
2022-11-08T02:12:11.519Z,17.08
2022-11-08T02:12:33.676Z,17.17
2022-11-08T02:12:56.009Z,17.17
2022-11-08T02:13:24.872Z,17.65
2022-11-08T02:13:46.835Z,17.38
2022-11-08T02:14:08.803Z,17.15
2022-11-08T02:14:31.423Z,16.70
2022-11-08T02:14:53.238Z,17.10
2022-11-08T02:15:16.076Z,16.85
2022-11-08T02:15:38.247Z,17.70
2022-11-08T02:16:00.417Z,17.23
2022-11-08T02:16:22.564Z,17.20
2022-11-08T02:16:44.560Z,16.55
2022-11-08T02:17:07.579Z,17.15
2022-11-08T02:17:29.351Z,17.05
2022-11-08T02:17:51.541Z,17.42
2022-11-08T02:18:14.900Z,17.38
2022-11-08T02:18:37.160Z,17.05
2022-11-08T02:18:59.530Z,16.95
2022-11-08T02:19:42.790Z,17.13
2022-11-08T02:20:05.109Z,16.50
2022-11-08T02:20:27.374Z,16.95
2022-11-08T02:20:54.041Z,17.10
2022-11-08T02:21:49.420Z,17.02
2022-11-08T02:22:28.040Z,16.83
2022-11-08T02:22:59.193Z,17.30
2022-11-08T02:23:51.221Z,16.67
2022-11-08T02:24:13.944Z,16.75
2022-11-08T02:24:36.286Z,17.13
2022-11-08T02:24:58.750Z,17.45
2022-11-08T02:25:20.596Z,17.27
2022-11-08T02:25:42.364Z,16.65
2022-11-08T02:26:04.611Z,16.63
2022-11-08T02:26:29.896Z,16.73
2022-11-08T02:26:55.216Z,16.60
2022-11-08T02:27:17.169Z,17.15
2022-11-08T02:27:38.899Z,16.65
2022-11-08T02:28:00.648Z,16.95
2022-11-08T02:28:22.755Z,17.25
2022-11-08T02:28:47.829Z,16.67
2022-11-08T02:29:30.048Z,17.50
2022-11-08T02:29:55.572Z,17.48
2022-11-08T02:30:17.749Z,16.83
2022-11-08T02:30:39.639Z,17.53
2022-11-08T02:31:01.752Z,17.15
2022-11-08T02:31:23.784Z,22.10
2022-11-08T02:31:45.590Z,22.42
2022-11-08T02:32:07.742Z,20.70
2022-11-08T02:32:40.966Z,19.98
2022-11-08T02:33:21.135Z,18.85
2022-11-08T02:33:43.233Z,18.08
2022-11-08T02:34:05.802Z,17.25
2022-11-08T02:34:34.571Z,16.98
2022-11-08T02:34:59.643Z,17.00
2022-11-08T02:35:21.802Z,16.50
2022-11-08T02:35:46.571Z,16.67
2022-11-08T02:36:11.522Z,16.77
2022-11-08T02:36:33.644Z,17.30
2022-11-08T02:36:56.422Z,16.33
2022-11-08T02:37:21.274Z,16.38
2022-11-08T02:37:43.890Z,16.92
2022-11-08T02:38:05.706Z,18.77
2022-11-08T02:38:27.619Z,17.58
2022-11-08T02:38:52.452Z,17.58
2022-11-08T02:39:14.176Z,17.45
2022-11-08T02:39:35.974Z,17.42
2022-11-08T02:39:57.763Z,17.02
2022-11-08T02:40:19.559Z,16.75
2022-11-08T02:40:50.881Z,18.17
2022-11-08T02:41:12.706Z,19.10
2022-11-08T02:41:34.839Z,17.83
2022-11-08T02:41:56.582Z,18.15
2022-11-08T02:42:20.056Z,19.75
2022-11-08T02:42:42.280Z,18.92
2022-11-08T02:43:04.417Z,17.23
2022-11-08T02:43:26.261Z,17.10
2022-11-08T02:43:48.132Z,18.40
2022-11-08T02:44:09.869Z,20.13
2022-11-08T02:44:31.658Z,20.30
2022-11-08T02:44:53.402Z,19.35
2022-11-08T02:45:15.171Z,18.65
2022-11-08T02:45:37.276Z,17.38
2022-11-08T02:45:59.433Z,18.27
2022-11-08T02:46:21.192Z,18.08
2022-11-08T02:46:42.908Z,17.50
2022-11-08T02:47:05.326Z,17.77
2022-11-08T02:47:27.067Z,17.42
2022-11-08T02:47:48.908Z,17.92
2022-11-08T02:48:11.518Z,20.40
2022-11-08T02:48:33.284Z,22.13
2022-11-08T02:48:55.015Z,22.40
2022-11-08T02:49:17.054Z,19.73
2022-11-08T02:49:38.892Z,18.25
2022-11-08T02:50:00.658Z,18.50
2022-11-08T02:50:22.731Z,19.42
2022-11-08T02:50:44.928Z,19.95
2022-11-08T02:51:06.804Z,19.67
2022-11-08T02:51:28.584Z,20.35
2022-11-08T02:51:52.845Z,20.75
2022-11-08T02:52:14.712Z,21.88
2022-11-08T02:52:36.508Z,20.15
2022-11-08T02:52:58.215Z,19.88
2022-11-08T02:53:20.231Z,19.52
2022-11-08T02:53:42.038Z,17.70
2022-11-08T02:54:04.204Z,16.85
2022-11-08T02:54:25.913Z,16.92
2022-11-08T02:54:47.675Z,17.30
2022-11-08T02:55:09.517Z,18.98
2022-11-08T02:55:32.982Z,24.65
2022-11-08T02:55:55.118Z,21.88
2022-11-08T02:56:16.890Z,19.15
2022-11-08T02:56:38.658Z,19.48
2022-11-08T02:57:00.459Z,20.30
2022-11-08T02:57:22.189Z,19.55
2022-11-08T02:57:43.946Z,19.70
2022-11-08T02:58:05.762Z,19.55
2022-11-08T02:58:28.111Z,19.17
2022-11-08T02:58:49.990Z,18.48
2022-11-08T02:59:12.192Z,21.05
2022-11-08T02:59:34.392Z,22.80
2022-11-08T02:59:56.586Z,20.27
2022-11-08T03:00:18.459Z,18.65
2022-11-08T03:00:40.708Z,19.15
2022-11-08T03:01:02.942Z,18.85
2022-11-08T03:01:24.816Z,18.05
2022-11-08T03:01:46.775Z,17.20
2022-11-08T03:02:08.898Z,16.90
2022-11-08T03:02:31.144Z,18.77
2022-11-08T03:02:57.482Z,24.95
2022-11-08T03:03:19.570Z,34.17
2022-11-08T03:03:41.782Z,60.58
2022-11-08T03:04:03.726Z,54.80
2022-11-08T03:04:25.616Z,51.10
2022-11-08T03:04:47.330Z,41.50
2022-11-08T03:05:09.561Z,43.83
2022-11-08T03:05:32.073Z,40.42
2022-11-08T03:05:55.988Z,41.90
2022-11-08T03:06:17.819Z,37.33
2022-11-08T03:06:39.597Z,29.85
2022-11-08T03:07:01.414Z,27.55
2022-11-08T03:07:24.946Z,25.20
2022-11-08T03:07:47.038Z,23.80
2022-11-08T03:08:08.846Z,22.58
2022-11-08T03:08:30.594Z,21.30
2022-11-08T03:08:52.384Z,23.73
2022-11-08T03:09:14.614Z,22.30
2022-11-08T03:09:36.463Z,19.95
2022-11-08T03:09:58.291Z,27.02
2022-11-08T03:10:20.682Z,33.65
2022-11-08T03:10:42.488Z,46.10
2022-11-08T03:11:04.253Z,50.10
2022-11-08T03:11:26.008Z,44.50
2022-11-08T03:11:47.751Z,48.10
2022-11-08T03:12:09.570Z,42.95
2022-11-08T03:12:31.334Z,35.05
2022-11-08T03:13:04.452Z,30.00
2022-11-08T03:13:26.331Z,26.35
2022-11-08T03:13:48.211Z,27.45
2022-11-08T03:14:09.999Z,26.05
2022-11-08T03:14:32.057Z,24.23
2022-11-08T03:14:54.167Z,24.70
2022-11-08T03:15:16.365Z,24.98
2022-11-08T03:15:38.201Z,26.38
2022-11-08T03:16:03.753Z,28.92
2022-11-08T03:16:25.715Z,31.38
2022-11-08T03:16:47.531Z,36.80
2022-11-08T03:17:09.355Z,43.05
2022-11-08T03:17:31.160Z,44.35
2022-11-08T03:17:53.736Z,55.28
2022-11-08T03:18:15.787Z,64.80
2022-11-08T03:18:38.220Z,52.28
2022-11-08T03:19:00.356Z,53.95
2022-11-08T03:19:22.100Z,51.05
2022-11-08T03:19:43.890Z,46.30
2022-11-08T03:20:06.659Z,47.70
2022-11-08T03:20:32.845Z,50.95
2022-11-08T03:20:55.239Z,48.20
2022-11-08T03:21:17.032Z,43.17
2022-11-08T03:21:39.151Z,48.63
2022-11-08T03:22:01.710Z,47.17
2022-11-08T03:22:23.926Z,37.05
2022-11-08T03:22:47.046Z,33.55
2022-11-08T03:23:09.018Z,37.28
2022-11-08T03:23:32.539Z,37.92
2022-11-08T03:23:54.310Z,42.28
2022-11-08T03:24:16.170Z,45.28
2022-11-08T03:24:38.076Z,46.00
2022-11-08T03:24:59.783Z,51.30
2022-11-08T03:25:21.699Z,75.40
2022-11-08T03:25:43.397Z,64.53
2022-11-08T03:26:05.561Z,54.47
2022-11-08T03:26:27.278Z,56.60
2022-11-08T03:26:49.462Z,66.00
2022-11-08T03:27:13.981Z,60.05
2022-11-08T03:27:36.123Z,57.92
2022-11-08T03:28:08.943Z,52.08
2022-11-08T03:28:31.097Z,39.90
2022-11-08T03:28:52.881Z,28.08
2022-11-08T03:29:14.609Z,23.08
2022-11-08T03:29:36.488Z,18.65
2022-11-08T03:29:58.206Z,18.45
2022-11-08T03:30:20.660Z,19.00
2022-11-08T03:30:42.823Z,18.90
2022-11-08T03:31:04.585Z,19.15
2022-11-08T03:31:26.307Z,19.33
2022-11-08T03:31:48.018Z,17.42
2022-11-08T03:32:09.775Z,16.52
2022-11-08T03:32:31.912Z,16.17
2022-11-08T03:32:54.062Z,15.50
2022-11-08T03:33:15.808Z,16.27
2022-11-08T03:33:37.693Z,16.25
2022-11-08T03:33:59.511Z,16.33
2022-11-08T03:34:21.324Z,16.10
2022-11-08T03:34:43.068Z,16.27
2022-11-08T03:35:05.320Z,16.23
2022-11-08T03:35:27.181Z,16.30
2022-11-08T03:35:49.765Z,15.95
2022-11-08T03:36:11.916Z,15.93
2022-11-08T03:36:33.678Z,15.32
2022-11-08T03:36:55.786Z,15.75
2022-11-08T03:37:17.775Z,15.90
2022-11-08T03:37:39.723Z,17.85
2022-11-08T03:38:01.443Z,36.13
2022-11-08T03:38:23.290Z,50.40
2022-11-08T03:38:45.053Z,28.67
2022-11-08T03:39:06.805Z,20.58
2022-11-08T03:39:28.513Z,20.30
2022-11-08T03:39:50.630Z,21.50
2022-11-08T03:40:12.914Z,20.45
2022-11-08T03:40:34.705Z,17.77
2022-11-08T03:40:56.447Z,17.83
2022-11-08T03:41:18.180Z,17.02
2022-11-08T03:41:39.939Z,20.65
2022-11-08T03:42:04.503Z,23.35
2022-11-08T03:42:26.414Z,19.80
2022-11-08T03:42:48.352Z,17.70
2022-11-08T03:43:10.294Z,16.50
2022-11-08T03:43:32.394Z,16.30
2022-11-08T03:43:54.630Z,17.48
2022-11-08T03:44:16.785Z,18.52
2022-11-08T03:44:38.548Z,18.42
2022-11-08T03:45:00.275Z,18.23
2022-11-08T03:45:21.982Z,17.77
2022-11-08T03:45:45.173Z,19.38
2022-11-08T03:46:06.897Z,21.02
2022-11-08T03:46:28.642Z,18.83
2022-11-08T03:46:50.409Z,18.15
2022-11-08T03:47:12.151Z,18.42
2022-11-08T03:47:39.761Z,19.30
2022-11-08T03:48:01.945Z,18.60
2022-11-08T03:48:24.145Z,19.45
2022-11-08T03:48:46.266Z,26.42
2022-11-08T03:49:08.113Z,26.60
2022-11-08T03:49:29.900Z,33.45
2022-11-08T03:49:51.624Z,37.83
2022-11-08T03:50:14.748Z,40.85
2022-11-08T03:50:36.563Z,42.47
2022-11-08T03:50:58.297Z,31.35
2022-11-08T03:51:20.015Z,28.52
2022-11-08T03:51:41.795Z,28.42
2022-11-08T03:52:04.055Z,26.27
2022-11-08T03:52:25.801Z,26.38
2022-11-08T03:52:49.073Z,25.75
2022-11-08T03:53:11.211Z,25.48
2022-11-08T03:53:33.124Z,24.20
2022-11-08T03:53:54.930Z,24.45
2022-11-08T03:54:16.826Z,25.10
2022-11-08T03:54:38.616Z,23.77
2022-11-08T03:55:00.379Z,24.98
2022-11-08T03:55:24.590Z,23.55
2022-11-08T03:55:46.419Z,21.42
2022-11-08T03:56:08.787Z,25.83
2022-11-08T03:56:30.537Z,32.88
2022-11-08T03:56:52.351Z,32.70
2022-11-08T03:57:14.243Z,29.77
2022-11-08T03:57:36.384Z,27.88
2022-11-08T03:57:58.391Z,26.92
2022-11-08T03:58:20.628Z,25.98
2022-11-08T03:58:42.694Z,23.48
2022-11-08T03:59:04.594Z,21.15
2022-11-08T03:59:26.747Z,20.70
2022-11-08T03:59:48.856Z,20.25
2022-11-08T04:00:12.158Z,19.52
2022-11-08T04:00:34.002Z,18.33
2022-11-08T04:00:58.218Z,17.60
2022-11-08T04:01:20.116Z,17.55
2022-11-08T04:01:42.050Z,21.80
2022-11-08T04:02:03.934Z,21.92
2022-11-08T04:02:26.271Z,19.58
2022-11-08T04:02:48.520Z,20.20
2022-11-08T04:03:10.345Z,19.58
2022-11-08T04:03:32.217Z,18.38
2022-11-08T04:03:53.927Z,18.75
2022-11-08T04:04:15.697Z,19.60
2022-11-08T04:04:37.424Z,22.30
2022-11-08T04:04:59.650Z,20.88
2022-11-08T04:05:21.825Z,23.08
2022-11-08T04:05:43.699Z,29.85
2022-11-08T04:06:05.757Z,27.23
2022-11-08T04:06:27.541Z,23.85
2022-11-08T04:06:49.644Z,23.23
2022-11-08T04:07:11.346Z,21.63
2022-11-08T04:07:33.212Z,19.38
2022-11-08T04:07:55.033Z,18.92
2022-11-08T04:08:17.069Z,20.50
2022-11-08T04:08:39.445Z,20.90
2022-11-08T04:09:01.257Z,29.25
2022-11-08T04:09:23.167Z,32.95
2022-11-08T04:09:44.890Z,33.03
2022-11-08T04:10:08.038Z,26.80
2022-11-08T04:10:29.773Z,25.90
2022-11-08T04:10:55.433Z,25.23
2022-11-08T04:11:36.311Z,22.92
2022-11-08T04:12:16.679Z,25.20
2022-11-08T04:13:01.240Z,22.02
2022-11-08T04:13:42.023Z,20.10
2022-11-08T04:14:23.117Z,33.13
2022-11-08T04:15:03.470Z,32.83
2022-11-08T04:15:25.929Z,33.33
2022-11-08T04:15:53.823Z,32.08
2022-11-08T04:16:18.031Z,24.48
2022-11-08T04:16:40.008Z,27.05
2022-11-08T04:17:01.850Z,29.35
2022-11-08T04:17:44.018Z,33.45
2022-11-08T04:18:24.929Z,24.67
2022-11-08T04:19:05.481Z,29.52
2022-11-08T04:19:45.592Z,31.08
2022-11-08T04:20:27.851Z,27.83
2022-11-08T04:21:08.595Z,29.20
2022-11-08T04:21:30.438Z,23.23
2022-11-08T04:21:54.798Z,22.05
2022-11-08T04:22:17.001Z,23.05
2022-11-08T04:22:38.792Z,20.50
2022-11-08T04:23:00.543Z,19.80
2022-11-08T04:23:22.720Z,19.90
2022-11-08T04:23:44.865Z,20.02
2022-11-08T04:24:06.947Z,19.60
2022-11-08T04:24:28.728Z,21.40
2022-11-08T04:24:50.594Z,22.45
2022-11-08T04:25:12.430Z,21.05
2022-11-08T04:25:35.323Z,25.35
2022-11-08T04:26:02.308Z,23.98
2022-11-08T04:26:24.047Z,22.23
2022-11-08T04:26:45.821Z,27.63
2022-11-08T04:27:07.564Z,32.55
2022-11-08T04:27:29.326Z,27.58
2022-11-08T04:27:51.155Z,23.30
2022-11-08T04:28:12.875Z,20.50
2022-11-08T04:28:37.487Z,18.50
2022-11-08T04:29:17.536Z,19.63
2022-11-08T04:29:39.717Z,19.25
2022-11-08T04:30:01.509Z,20.90
2022-11-08T04:30:23.645Z,21.15
2022-11-08T04:30:45.370Z,22.45
2022-11-08T04:31:15.984Z,22.50
2022-11-08T04:31:38.315Z,22.55
2022-11-08T04:32:00.467Z,24.83
2022-11-08T04:32:22.225Z,23.35
2022-11-08T04:32:43.978Z,23.27
2022-11-08T04:33:07.033Z,23.67
2022-11-08T04:33:29.422Z,23.15
2022-11-08T04:33:51.558Z,22.40
2022-11-08T04:34:13.434Z,21.60
2022-11-08T04:34:35.248Z,22.40
2022-11-08T04:34:57.275Z,22.88
2022-11-08T04:35:19.025Z,24.83
2022-11-08T04:35:40.760Z,42.13
2022-11-08T04:36:08.209Z,40.97
2022-11-08T04:36:30.018Z,34.95
2022-11-08T04:36:51.728Z,33.05
2022-11-08T04:37:13.488Z,29.55
2022-11-08T04:37:35.319Z,25.98
2022-11-08T04:38:01.568Z,24.85
2022-11-08T04:38:23.296Z,28.63
2022-11-08T04:38:48.354Z,29.73
2022-11-08T04:39:10.721Z,27.33
2022-11-08T04:39:32.857Z,24.90
2022-11-08T04:39:54.978Z,22.67
2022-11-08T04:40:16.789Z,21.88
2022-11-08T04:40:38.533Z,21.35
2022-11-08T04:41:02.593Z,22.45
2022-11-08T04:41:26.395Z,24.48
2022-11-08T04:41:48.159Z,24.45
2022-11-08T04:42:09.950Z,25.48
2022-11-08T04:42:31.695Z,26.05
2022-11-08T04:42:53.860Z,27.88
2022-11-08T04:43:16.014Z,32.28
2022-11-08T04:43:38.195Z,33.33
2022-11-08T04:43:59.918Z,30.52
2022-11-08T04:44:21.696Z,29.88
2022-11-08T04:44:43.458Z,28.02
2022-11-08T04:45:05.436Z,24.63
2022-11-08T04:45:27.549Z,26.92
2022-11-08T04:45:49.744Z,26.25
2022-11-08T04:46:16.560Z,21.83
2022-11-08T04:46:38.310Z,21.25
2022-11-08T04:47:00.079Z,24.63
2022-11-08T04:47:22.240Z,26.42
2022-11-08T04:47:48.607Z,26.85
2022-11-08T04:48:10.895Z,26.83
2022-11-08T04:48:32.865Z,27.85
2022-11-08T04:48:59.936Z,27.02
2022-11-08T04:49:21.777Z,22.95
2022-11-08T04:49:43.538Z,25.67
2022-11-08T04:50:05.596Z,28.63
2022-11-08T04:50:27.774Z,32.03
2022-11-08T04:50:49.664Z,36.72
2022-11-08T04:51:13.763Z,36.05
2022-11-08T04:51:35.924Z,38.17
2022-11-08T04:51:57.680Z,46.38
2022-11-08T04:52:19.436Z,44.60
2022-11-08T04:52:41.744Z,30.45
2022-11-08T04:53:04.035Z,24.23
2022-11-08T04:53:25.936Z,23.95
2022-11-08T04:53:48.078Z,23.95
2022-11-08T04:54:11.739Z,27.33
2022-11-08T04:54:33.548Z,28.40
2022-11-08T04:54:55.718Z,25.05
2022-11-08T04:55:17.563Z,24.02
2022-11-08T04:55:39.426Z,26.98
2022-11-08T04:56:06.423Z,27.80
2022-11-08T04:56:30.213Z,30.08
2022-11-08T04:56:52.039Z,30.73
2022-11-08T04:57:13.779Z,31.40
2022-11-08T04:57:36.070Z,29.88
2022-11-08T04:57:59.056Z,27.02
2022-11-08T04:58:21.299Z,24.88
2022-11-08T04:58:45.259Z,26.05
2022-11-08T04:59:11.750Z,25.40
2022-11-08T04:59:33.929Z,25.88
2022-11-08T04:59:55.958Z,23.75
2022-11-08T05:00:18.292Z,24.48
2022-11-08T05:00:40.437Z,23.85
2022-11-08T05:01:03.581Z,24.25
2022-11-08T05:01:28.169Z,24.83
2022-11-08T05:01:50.177Z,25.30
2022-11-08T05:02:12.648Z,24.58
2022-11-08T05:02:34.600Z,22.83
2022-11-08T05:02:56.819Z,22.67
2022-11-08T05:03:19.011Z,22.30
2022-11-08T05:03:41.011Z,23.58
2022-11-08T05:04:03.155Z,22.75
2022-11-08T05:04:24.864Z,22.65
2022-11-08T05:04:46.664Z,22.60
2022-11-08T05:05:09.190Z,22.80
2022-11-08T05:05:31.530Z,22.97